sensor_id;sensor_type;location;lat;lon;timestamp;P1;durP1;ratioP1;P2;durP2;ratioP2
18738;SDS011;9498;51.862;19.460;2022-07-22T00:01:23;13.60;;;6.10;;
18738;SDS011;9498;51.862;19.460;2022-07-22T00:03:51;11.57;;;6.13;;
18738;SDS011;9498;51.862;19.460;2022-07-22T00:06:19;13.23;;;5.47;;
18738;SDS011;9498;51.862;19.460;2022-07-22T00:08:46;11.13;;;5.67;;
18738;SDS011;9498;51.862;19.460;2022-07-22T00:11:13;11.90;;;5.83;;
18738;SDS011;9498;51.862;19.460;2022-07-22T00:13:40;11.77;;;5.37;;
18738;SDS011;9498;51.862;19.460;2022-07-22T00:16:08;10.97;;;5.80;;
18738;SDS011;9498;51.862;19.460;2022-07-22T00:18:35;13.80;;;5.60;;
18738;SDS011;9498;51.862;19.460;2022-07-22T00:21:03;13.73;;;6.03;;
18738;SDS011;9498;51.862;19.460;2022-07-22T00:23:31;14.63;;;5.80;;
18738;SDS011;9498;51.862;19.460;2022-07-22T00:25:58;13.67;;;5.87;;
18738;SDS011;9498;51.862;19.460;2022-07-22T00:28:25;13.17;;;6.20;;
18738;SDS011;9498;51.862;19.460;2022-07-22T00:30:53;11.90;;;5.83;;
18738;SDS011;9498;51.862;19.460;2022-07-22T00:33:20;9.70;;;6.10;;
18738;SDS011;9498;51.862;19.460;2022-07-22T00:35:47;12.83;;;6.63;;
18738;SDS011;9498;51.862;19.460;2022-07-22T00:38:16;12.17;;;6.80;;
18738;SDS011;9498;51.862;19.460;2022-07-22T00:40:43;13.20;;;5.73;;
18738;SDS011;9498;51.862;19.460;2022-07-22T00:43:11;12.97;;;6.30;;
18738;SDS011;9498;51.862;19.460;2022-07-22T00:45:38;12.23;;;5.93;;
18738;SDS011;9498;51.862;19.460;2022-07-22T00:48:05;11.57;;;5.90;;
18738;SDS011;9498;51.862;19.460;2022-07-22T00:50:33;10.97;;;5.80;;
18738;SDS011;9498;51.862;19.460;2022-07-22T00:53:00;9.90;;;6.07;;
18738;SDS011;9498;51.862;19.460;2022-07-22T00:55:29;9.43;;;5.97;;
18738;SDS011;9498;51.862;19.460;2022-07-22T00:57:56;14.10;;;6.87;;
18738;SDS011;9498;51.862;19.460;2022-07-22T01:00:23;13.60;;;6.50;;
18738;SDS011;9498;51.862;19.460;2022-07-22T01:02:50;12.93;;;6.27;;
18738;SDS011;9498;51.862;19.460;2022-07-22T01:05:19;16.33;;;6.40;;
18738;SDS011;9498;51.862;19.460;2022-07-22T01:07:46;14.00;;;6.80;;
18738;SDS011;9498;51.862;19.460;2022-07-22T01:10:13;10.17;;;5.70;;
18738;SDS011;9498;51.862;19.460;2022-07-22T01:12:42;15.20;;;6.83;;
18738;SDS011;9498;51.862;19.460;2022-07-22T01:15:10;11.17;;;6.53;;
18738;SDS011;9498;51.862;19.460;2022-07-22T01:17:37;10.80;;;6.30;;
18738;SDS011;9498;51.862;19.460;2022-07-22T01:20:06;12.27;;;6.10;;
18738;SDS011;9498;51.862;19.460;2022-07-22T01:22:34;11.50;;;6.73;;
18738;SDS011;9498;51.862;19.460;2022-07-22T01:25:01;13.97;;;6.80;;
18738;SDS011;9498;51.862;19.460;2022-07-22T01:27:29;15.80;;;6.90;;
18738;SDS011;9498;51.862;19.460;2022-07-22T01:29:56;12.47;;;6.93;;
18738;SDS011;9498;51.862;19.460;2022-07-22T01:32:23;13.73;;;6.00;;
18738;SDS011;9498;51.862;19.460;2022-07-22T01:34:51;14.73;;;6.30;;
18738;SDS011;9498;51.862;19.460;2022-07-22T01:37:19;17.17;;;6.57;;
18738;SDS011;9498;51.862;19.460;2022-07-22T01:39:47;16.87;;;6.70;;
18738;SDS011;9498;51.862;19.460;2022-07-22T01:42:14;13.93;;;6.80;;
18738;SDS011;9498;51.862;19.460;2022-07-22T01:44:42;11.90;;;6.70;;
18738;SDS011;9498;51.862;19.460;2022-07-22T01:47:09;11.83;;;6.47;;
18738;SDS011;9498;51.862;19.460;2022-07-22T01:49:36;17.57;;;6.27;;
18738;SDS011;9498;51.862;19.460;2022-07-22T01:52:04;14.17;;;6.37;;
18738;SDS011;9498;51.862;19.460;2022-07-22T01:54:32;14.20;;;6.83;;
18738;SDS011;9498;51.862;19.460;2022-07-22T01:57:01;15.90;;;6.93;;
18738;SDS011;9498;51.862;19.460;2022-07-22T01:59:28;17.20;;;7.27;;
18738;SDS011;9498;51.862;19.460;2022-07-22T02:01:55;13.23;;;6.73;;
18738;SDS011;9498;51.862;19.460;2022-07-22T02:04:23;14.93;;;6.53;;
18738;SDS011;9498;51.862;19.460;2022-07-22T02:06:50;17.93;;;7.00;;
18738;SDS011;9498;51.862;19.460;2022-07-22T02:09:18;11.23;;;6.50;;
18738;SDS011;9498;51.862;19.460;2022-07-22T02:11:46;13.23;;;6.70;;
18738;SDS011;9498;51.862;19.460;2022-07-22T02:14:14;15.30;;;6.93;;
18738;SDS011;9498;51.862;19.460;2022-07-22T02:16:41;14.40;;;6.70;;
18738;SDS011;9498;51.862;19.460;2022-07-22T02:19:08;16.77;;;6.90;;
18738;SDS011;9498;51.862;19.460;2022-07-22T02:21:35;13.07;;;7.00;;
18738;SDS011;9498;51.862;19.460;2022-07-22T02:24:03;18.37;;;7.40;;
18738;SDS011;9498;51.862;19.460;2022-07-22T02:26:30;12.80;;;7.13;;
18738;SDS011;9498;51.862;19.460;2022-07-22T02:28:59;15.70;;;6.70;;
18738;SDS011;9498;51.862;19.460;2022-07-22T02:31:26;13.27;;;7.33;;
18738;SDS011;9498;51.862;19.460;2022-07-22T02:33:53;13.13;;;7.13;;
18738;SDS011;9498;51.862;19.460;2022-07-22T02:36:21;16.47;;;6.90;;
18738;SDS011;9498;51.862;19.460;2022-07-22T02:38:48;15.40;;;7.00;;
18738;SDS011;9498;51.862;19.460;2022-07-22T02:41:15;14.47;;;7.53;;
18738;SDS011;9498;51.862;19.460;2022-07-22T02:43:42;13.67;;;7.10;;
18738;SDS011;9498;51.862;19.460;2022-07-22T02:46:11;15.33;;;6.90;;
18738;SDS011;9498;51.862;19.460;2022-07-22T02:48:38;16.70;;;7.47;;
18738;SDS011;9498;51.862;19.460;2022-07-22T02:51:06;14.33;;;7.33;;
18738;SDS011;9498;51.862;19.460;2022-07-22T02:53:33;13.47;;;7.20;;
18738;SDS011;9498;51.862;19.460;2022-07-22T02:56:00;14.83;;;7.13;;
18738;SDS011;9498;51.862;19.460;2022-07-22T02:58:27;14.70;;;7.77;;
18738;SDS011;9498;51.862;19.460;2022-07-22T03:00:55;13.73;;;7.43;;
18738;SDS011;9498;51.862;19.460;2022-07-22T03:03:23;17.73;;;8.17;;
18738;SDS011;9498;51.862;19.460;2022-07-22T03:05:51;15.67;;;7.47;;
18738;SDS011;9498;51.862;19.460;2022-07-22T03:08:18;14.43;;;7.57;;
18738;SDS011;9498;51.862;19.460;2022-07-22T03:10:45;13.57;;;7.50;;
18738;SDS011;9498;51.862;19.460;2022-07-22T03:13:13;12.10;;;7.23;;
18738;SDS011;9498;51.862;19.460;2022-07-22T03:15:40;15.67;;;7.87;;
18738;SDS011;9498;51.862;19.460;2022-07-22T03:18:09;16.03;;;7.90;;
18738;SDS011;9498;51.862;19.460;2022-07-22T03:20:37;14.67;;;7.53;;
18738;SDS011;9498;51.862;19.460;2022-07-22T03:23:05;15.00;;;7.97;;
18738;SDS011;9498;51.862;19.460;2022-07-22T03:25:32;11.67;;;7.50;;
18738;SDS011;9498;51.862;19.460;2022-07-22T03:27:59;15.43;;;7.83;;
18738;SDS011;9498;51.862;19.460;2022-07-22T03:30:26;18.70;;;8.40;;
18738;SDS011;9498;51.862;19.460;2022-07-22T03:32:54;16.97;;;8.03;;
18738;SDS011;9498;51.862;19.460;2022-07-22T03:35:21;16.50;;;8.47;;
18738;SDS011;9498;51.862;19.460;2022-07-22T03:37:50;17.53;;;8.30;;
18738;SDS011;9498;51.862;19.460;2022-07-22T03:40:17;12.80;;;7.40;;
18738;SDS011;9498;51.862;19.460;2022-07-22T03:42:44;12.83;;;7.63;;
18738;SDS011;9498;51.862;19.460;2022-07-22T03:45:12;15.13;;;7.83;;
18738;SDS011;9498;51.862;19.460;2022-07-22T03:47:39;16.63;;;7.97;;
18738;SDS011;9498;51.862;19.460;2022-07-22T03:50:06;13.73;;;7.43;;
18738;SDS011;9498;51.862;19.460;2022-07-22T03:52:34;19.63;;;7.10;;
18738;SDS011;9498;51.862;19.460;2022-07-22T03:55:03;15.27;;;7.63;;
18738;SDS011;9498;51.862;19.460;2022-07-22T03:57:30;13.57;;;7.87;;
18738;SDS011;9498;51.862;19.460;2022-07-22T03:59:57;16.70;;;7.67;;
18738;SDS011;9498;51.862;19.460;2022-07-22T04:02:24;16.63;;;8.07;;
18738;SDS011;9498;51.862;19.460;2022-07-22T04:04:52;12.23;;;7.30;;
18738;SDS011;9498;51.862;19.460;2022-07-22T04:07:19;13.03;;;7.83;;
18738;SDS011;9498;51.862;19.460;2022-07-22T04:09:46;13.60;;;7.60;;
18738;SDS011;9498;51.862;19.460;2022-07-22T04:12:15;15.03;;;8.00;;
18738;SDS011;9498;51.862;19.460;2022-07-22T04:14:42;12.90;;;7.37;;
18738;SDS011;9498;51.862;19.460;2022-07-22T04:17:09;11.27;;;7.40;;
18738;SDS011;9498;51.862;19.460;2022-07-22T04:19:36;12.93;;;7.90;;
18738;SDS011;9498;51.862;19.460;2022-07-22T04:22:04;18.87;;;8.40;;
18738;SDS011;9498;51.862;19.460;2022-07-22T04:24:31;13.20;;;8.23;;
18738;SDS011;9498;51.862;19.460;2022-07-22T04:26:58;23.10;;;9.83;;
18738;SDS011;9498;51.862;19.460;2022-07-22T04:29:27;18.77;;;9.60;;
18738;SDS011;9498;51.862;19.460;2022-07-22T04:31:54;16.97;;;9.73;;
18738;SDS011;9498;51.862;19.460;2022-07-22T04:34:21;29.13;;;10.93;;
18738;SDS011;9498;51.862;19.460;2022-07-22T04:36:49;39.83;;;10.70;;
18738;SDS011;9498;51.862;19.460;2022-07-22T04:39:16;35.67;;;12.23;;
18738;SDS011;9498;51.862;19.460;2022-07-22T04:41:44;31.27;;;10.97;;
18738;SDS011;9498;51.862;19.460;2022-07-22T04:44:11;25.17;;;11.10;;
18738;SDS011;9498;51.862;19.460;2022-07-22T04:46:39;21.87;;;10.63;;
18738;SDS011;9498;51.862;19.460;2022-07-22T04:49:07;18.60;;;10.27;;
18738;SDS011;9498;51.862;19.460;2022-07-22T04:51:34;20.80;;;11.20;;
18738;SDS011;9498;51.862;19.460;2022-07-22T04:54:01;28.13;;;13.20;;
18738;SDS011;9498;51.862;19.460;2022-07-22T04:56:29;26.40;;;12.90;;
18738;SDS011;9498;51.862;19.460;2022-07-22T04:58:56;25.67;;;12.40;;
18738;SDS011;9498;51.862;19.460;2022-07-22T05:01:23;24.60;;;11.77;;
18738;SDS011;9498;51.862;19.460;2022-07-22T05:03:52;22.57;;;11.90;;
18738;SDS011;9498;51.862;19.460;2022-07-22T05:06:19;32.40;;;13.27;;
18738;SDS011;9498;51.862;19.460;2022-07-22T05:08:46;35.67;;;14.23;;
18738;SDS011;9498;51.862;19.460;2022-07-22T05:11:13;28.63;;;12.93;;
18738;SDS011;9498;51.862;19.460;2022-07-22T05:13:41;26.10;;;13.47;;
18738;SDS011;9498;51.862;19.460;2022-07-22T05:16:08;29.23;;;14.73;;
18738;SDS011;9498;51.862;19.460;2022-07-22T05:18:35;29.57;;;13.03;;
18738;SDS011;9498;51.862;19.460;2022-07-22T05:21:04;31.73;;;13.47;;
18738;SDS011;9498;51.862;19.460;2022-07-22T05:23:32;24.73;;;13.30;;
18738;SDS011;9498;51.862;19.460;2022-07-22T05:25:59;28.47;;;13.10;;
18738;SDS011;9498;51.862;19.460;2022-07-22T05:28:26;23.27;;;13.80;;
18738;SDS011;9498;51.862;19.460;2022-07-22T05:30:53;24.13;;;12.77;;
18738;SDS011;9498;51.862;19.460;2022-07-22T05:33:21;44.43;;;13.60;;
18738;SDS011;9498;51.862;19.460;2022-07-22T05:35:48;24.33;;;12.73;;
18738;SDS011;9498;51.862;19.460;2022-07-22T05:38:17;26.67;;;13.43;;
18738;SDS011;9498;51.862;19.460;2022-07-22T05:40:44;21.03;;;12.43;;
18738;SDS011;9498;51.862;19.460;2022-07-22T05:43:11;22.00;;;12.23;;
18738;SDS011;9498;51.862;19.460;2022-07-22T05:45:38;29.23;;;12.83;;
18738;SDS011;9498;51.862;19.460;2022-07-22T05:48:06;26.03;;;13.23;;
18738;SDS011;9498;51.862;19.460;2022-07-22T05:50:33;25.20;;;13.90;;
18738;SDS011;9498;51.862;19.460;2022-07-22T05:53:00;19.57;;;13.50;;
18738;SDS011;9498;51.862;19.460;2022-07-22T05:55:29;21.67;;;13.47;;
18738;SDS011;9498;51.862;19.460;2022-07-22T05:57:56;24.73;;;14.30;;
18738;SDS011;9498;51.862;19.460;2022-07-22T06:00:23;28.17;;;13.50;;
18738;SDS011;9498;51.862;19.460;2022-07-22T06:02:51;23.93;;;13.43;;
18738;SDS011;9498;51.862;19.460;2022-07-22T06:05:18;22.77;;;13.50;;
18738;SDS011;9498;51.862;19.460;2022-07-22T06:07:45;25.23;;;12.80;;
18738;SDS011;9498;51.862;19.460;2022-07-22T06:10:13;23.80;;;14.10;;
18738;SDS011;9498;51.862;19.460;2022-07-22T06:12:41;23.17;;;13.60;;
18738;SDS011;9498;51.862;19.460;2022-07-22T06:15:09;23.37;;;12.93;;
18738;SDS011;9498;51.862;19.460;2022-07-22T06:17:36;17.47;;;12.07;;
18738;SDS011;9498;51.862;19.460;2022-07-22T06:20:04;20.47;;;12.73;;
18738;SDS011;9498;51.862;19.460;2022-07-22T06:22:31;18.73;;;11.50;;
18738;SDS011;9498;51.862;19.460;2022-07-22T06:24:58;25.90;;;12.57;;
18738;SDS011;9498;51.862;19.460;2022-07-22T06:27:26;19.57;;;12.37;;
18738;SDS011;9498;51.862;19.460;2022-07-22T06:29:54;19.67;;;11.63;;
18738;SDS011;9498;51.862;19.460;2022-07-22T06:32:22;21.97;;;12.20;;
18738;SDS011;9498;51.862;19.460;2022-07-22T06:34:49;19.03;;;11.37;;
18738;SDS011;9498;51.862;19.460;2022-07-22T06:37:16;18.00;;;11.10;;
18738;SDS011;9498;51.862;19.460;2022-07-22T06:39:43;16.83;;;10.77;;
18738;SDS011;9498;51.862;19.460;2022-07-22T06:42:11;19.93;;;10.73;;
18738;SDS011;9498;51.862;19.460;2022-07-22T06:44:39;20.40;;;10.70;;
18738;SDS011;9498;51.862;19.460;2022-07-22T06:47:07;21.43;;;11.20;;
18738;SDS011;9498;51.862;19.460;2022-07-22T06:49:35;18.10;;;10.40;;
18738;SDS011;9498;51.862;19.460;2022-07-22T06:52:02;19.60;;;10.93;;
18738;SDS011;9498;51.862;19.460;2022-07-22T06:54:29;16.97;;;11.30;;
18738;SDS011;9498;51.862;19.460;2022-07-22T06:56:57;19.37;;;10.53;;
18738;SDS011;9498;51.862;19.460;2022-07-22T06:59:24;16.40;;;10.40;;
18738;SDS011;9498;51.862;19.460;2022-07-22T07:01:51;20.43;;;10.80;;
18738;SDS011;9498;51.862;19.460;2022-07-22T07:04:20;20.07;;;10.47;;
18738;SDS011;9498;51.862;19.460;2022-07-22T07:06:47;21.73;;;11.67;;
18738;SDS011;9498;51.862;19.460;2022-07-22T07:09:15;17.70;;;10.67;;
18738;SDS011;9498;51.862;19.460;2022-07-22T07:11:42;21.67;;;9.83;;
18738;SDS011;9498;51.862;19.460;2022-07-22T07:14:09;16.83;;;10.30;;
18738;SDS011;9498;51.862;19.460;2022-07-22T07:16:37;16.60;;;9.87;;
18738;SDS011;9498;51.862;19.460;2022-07-22T07:19:04;14.40;;;9.70;;
18738;SDS011;9498;51.862;19.460;2022-07-22T07:21:33;14.87;;;9.40;;
18738;SDS011;9498;51.862;19.460;2022-07-22T07:24:00;17.67;;;9.60;;
18738;SDS011;9498;51.862;19.460;2022-07-22T07:26:27;17.80;;;9.43;;
18738;SDS011;9498;51.862;19.460;2022-07-22T07:28:55;16.37;;;9.60;;
18738;SDS011;9498;51.862;19.460;2022-07-22T07:31:22;16.00;;;9.57;;
18738;SDS011;9498;51.862;19.460;2022-07-22T07:33:49;16.17;;;9.47;;
18738;SDS011;9498;51.862;19.460;2022-07-22T07:36:19;14.53;;;9.27;;
18738;SDS011;9498;51.862;19.460;2022-07-22T07:38:47;17.77;;;9.87;;
18738;SDS011;9498;51.862;19.460;2022-07-22T07:41:15;19.23;;;10.00;;
18738;SDS011;9498;51.862;19.460;2022-07-22T07:43:42;17.03;;;9.97;;
18738;SDS011;9498;51.862;19.460;2022-07-22T07:46:09;15.03;;;9.77;;
18738;SDS011;9498;51.862;19.460;2022-07-22T07:48:37;15.03;;;9.53;;
18738;SDS011;9498;51.862;19.460;2022-07-22T07:51:04;16.83;;;9.90;;
18738;SDS011;9498;51.862;19.460;2022-07-22T07:53:32;18.13;;;9.37;;
18738;SDS011;9498;51.862;19.460;2022-07-22T07:56:01;13.03;;;9.20;;
18738;SDS011;9498;51.862;19.460;2022-07-22T07:58:28;15.03;;;9.83;;
18738;SDS011;9498;51.862;19.460;2022-07-22T08:00:55;16.43;;;9.77;;
18738;SDS011;9498;51.862;19.460;2022-07-22T08:03:22;14.63;;;9.10;;
18738;SDS011;9498;51.862;19.460;2022-07-22T08:05:50;14.60;;;9.47;;
18738;SDS011;9498;51.862;19.460;2022-07-22T08:08:17;12.83;;;8.93;;
18738;SDS011;9498;51.862;19.460;2022-07-22T08:10:44;16.43;;;9.57;;
18738;SDS011;9498;51.862;19.460;2022-07-22T08:13:13;14.53;;;9.80;;
18738;SDS011;9498;51.862;19.460;2022-07-22T08:15:40;16.83;;;9.13;;
18738;SDS011;9498;51.862;19.460;2022-07-22T08:18:08;15.17;;;8.93;;
18738;SDS011;9498;51.862;19.460;2022-07-22T08:20:35;20.13;;;8.80;;
18738;SDS011;9498;51.862;19.460;2022-07-22T08:23:03;13.13;;;8.80;;
18738;SDS011;9498;51.862;19.460;2022-07-22T08:25:30;14.33;;;9.37;;
18738;SDS011;9498;51.862;19.460;2022-07-22T08:27:57;17.67;;;8.73;;
18738;SDS011;9498;51.862;19.460;2022-07-22T08:30:26;12.63;;;8.40;;
18738;SDS011;9498;51.862;19.460;2022-07-22T08:32:54;12.53;;;8.80;;
18738;SDS011;9498;51.862;19.460;2022-07-22T08:35:21;15.10;;;9.70;;
18738;SDS011;9498;51.862;19.460;2022-07-22T08:37:48;13.60;;;8.50;;
18738;SDS011;9498;51.862;19.460;2022-07-22T08:40:16;15.20;;;8.87;;
18738;SDS011;9498;51.862;19.460;2022-07-22T08:42:44;16.43;;;9.67;;
18738;SDS011;9498;51.862;19.460;2022-07-22T08:45:11;13.40;;;8.67;;
18738;SDS011;9498;51.862;19.460;2022-07-22T08:47:40;23.33;;;9.50;;
18738;SDS011;9498;51.862;19.460;2022-07-22T08:50:10;16.63;;;8.77;;
18738;SDS011;9498;51.862;19.460;2022-07-22T08:52:38;13.63;;;9.00;;
18738;SDS011;9498;51.862;19.460;2022-07-22T08:55:06;14.57;;;8.03;;
18738;SDS011;9498;51.862;19.460;2022-07-22T08:57:34;12.63;;;8.50;;
18738;SDS011;9498;51.862;19.460;2022-07-22T09:00:03;13.53;;;8.60;;
18738;SDS011;9498;51.862;19.460;2022-07-22T09:02:35;22.17;;;8.87;;
18738;SDS011;9498;51.862;19.460;2022-07-22T09:05:05;10.87;;;7.70;;
18738;SDS011;9498;51.862;19.460;2022-07-22T09:07:33;10.90;;;7.90;;
18738;SDS011;9498;51.862;19.460;2022-07-22T09:10:01;13.67;;;7.83;;
18738;SDS011;9498;51.862;19.460;2022-07-22T09:12:29;13.37;;;8.37;;
18738;SDS011;9498;51.862;19.460;2022-07-22T09:14:58;12.53;;;8.03;;
18738;SDS011;9498;51.862;19.460;2022-07-22T09:17:26;13.48;;;8.70;;
18738;SDS011;9498;51.862;19.460;2022-07-22T09:19:54;13.10;;;7.97;;
18738;SDS011;9498;51.862;19.460;2022-07-22T09:22:32;13.33;;;8.10;;
18738;SDS011;9498;51.862;19.460;2022-07-22T09:27:43;17.37;;;8.70;;
18738;SDS011;9498;51.862;19.460;2022-07-22T09:30:11;13.00;;;8.87;;
18738;SDS011;9498;51.862;19.460;2022-07-22T09:32:39;11.30;;;8.33;;
18738;SDS011;9498;51.862;19.460;2022-07-22T09:35:07;14.60;;;8.75;;
18738;SDS011;9498;51.862;19.460;2022-07-22T09:37:36;11.57;;;7.77;;
18738;SDS011;9498;51.862;19.460;2022-07-22T09:40:13;14.53;;;8.40;;
18738;SDS011;9498;51.862;19.460;2022-07-22T09:42:44;12.50;;;8.50;;
18738;SDS011;9498;51.862;19.460;2022-07-22T09:45:12;14.13;;;8.50;;
18738;SDS011;9498;51.862;19.460;2022-07-22T09:47:40;17.93;;;8.87;;
18738;SDS011;9498;51.862;19.460;2022-07-22T09:50:19;14.97;;;8.57;;
18738;SDS011;9498;51.862;19.460;2022-07-22T09:52:48;14.20;;;8.73;;
18738;SDS011;9498;51.862;19.460;2022-07-22T09:55:16;15.48;;;9.40;;
18738;SDS011;9498;51.862;19.460;2022-07-22T09:57:44;13.80;;;8.77;;
18738;SDS011;9498;51.862;19.460;2022-07-22T10:00:12;12.93;;;8.67;;
18738;SDS011;9498;51.862;19.460;2022-07-22T10:02:41;17.77;;;8.73;;
18738;SDS011;9498;51.862;19.460;2022-07-22T10:05:09;12.30;;;8.53;;
18738;SDS011;9498;51.862;19.460;2022-07-22T10:07:38;12.25;;;8.60;;
18738;SDS011;9498;51.862;19.460;2022-07-22T10:10:08;16.97;;;8.80;;
18738;SDS011;9498;51.862;19.460;2022-07-22T10:12:35;12.57;;;8.03;;
18738;SDS011;9498;51.862;19.460;2022-07-22T10:15:03;11.27;;;7.80;;
18738;SDS011;9498;51.862;19.460;2022-07-22T10:17:31;14.65;;;8.68;;
18738;SDS011;9498;51.862;19.460;2022-07-22T10:19:58;13.13;;;8.03;;
18738;SDS011;9498;51.862;19.460;2022-07-22T10:22:45;11.00;;;7.87;;
18738;SDS011;9498;51.862;19.460;2022-07-22T10:25:16;12.90;;;7.73;;
18738;SDS011;9498;51.862;19.460;2022-07-22T10:27:45;11.13;;;7.60;;
18738;SDS011;9498;51.862;19.460;2022-07-22T10:30:12;13.00;;;7.10;;
18738;SDS011;9498;51.862;19.460;2022-07-22T10:32:40;10.53;;;7.10;;
18738;SDS011;9498;51.862;19.460;2022-07-22T10:35:20;10.80;;;7.67;;
18738;SDS011;9498;51.862;19.460;2022-07-22T10:37:49;12.03;;;7.17;;
18738;SDS011;9498;51.862;19.460;2022-07-22T10:40:20;10.18;;;7.70;;
18738;SDS011;9498;51.862;19.460;2022-07-22T10:43:03;10.83;;;6.73;;
18738;SDS011;9498;51.862;19.460;2022-07-22T10:45:33;13.77;;;8.03;;
18738;SDS011;9498;51.862;19.460;2022-07-22T10:48:01;11.27;;;7.67;;
18738;SDS011;9498;51.862;19.460;2022-07-22T10:50:43;16.50;;;8.23;;
18738;SDS011;9498;51.862;19.460;2022-07-22T10:53:12;12.70;;;8.40;;
18738;SDS011;9498;51.862;19.460;2022-07-22T10:58:43;10.37;;;7.33;;
18738;SDS011;9498;51.862;19.460;2022-07-22T11:01:12;11.73;;;7.93;;
18738;SDS011;9498;51.862;19.460;2022-07-22T11:03:40;14.67;;;8.60;;
18738;SDS011;9498;51.862;19.460;2022-07-22T11:06:18;11.33;;;8.10;;
18738;SDS011;9498;51.862;19.460;2022-07-22T11:08:46;13.83;;;8.10;;
18738;SDS011;9498;51.862;19.460;2022-07-22T11:11:14;8.77;;;7.00;;
18738;SDS011;9498;51.862;19.460;2022-07-22T11:13:43;13.47;;;7.60;;
18738;SDS011;9498;51.862;19.460;2022-07-22T11:16:14;17.93;;;7.77;;
18738;SDS011;9498;51.862;19.460;2022-07-22T11:18:49;13.97;;;8.00;;
18738;SDS011;9498;51.862;19.460;2022-07-22T11:21:17;11.67;;;7.50;;
18738;SDS011;9498;51.862;19.460;2022-07-22T11:23:44;13.07;;;7.30;;
18738;SDS011;9498;51.862;19.460;2022-07-22T11:26:14;11.00;;;6.30;;
18738;SDS011;9498;51.862;19.460;2022-07-22T11:28:43;11.82;;;6.88;;
18738;SDS011;9498;51.862;19.460;2022-07-22T11:31:14;11.47;;;6.50;;
18738;SDS011;9498;51.862;19.460;2022-07-22T11:33:41;11.03;;;6.20;;
18738;SDS011;9498;51.862;19.460;2022-07-22T11:36:08;12.03;;;6.63;;
18738;SDS011;9498;51.862;19.460;2022-07-22T11:38:40;12.70;;;7.00;;
18738;SDS011;9498;51.862;19.460;2022-07-22T11:41:07;10.52;;;6.25;;
18738;SDS011;9498;51.862;19.460;2022-07-22T11:43:38;10.10;;;6.50;;
18738;SDS011;9498;51.862;19.460;2022-07-22T11:46:07;9.60;;;6.73;;
18738;SDS011;9498;51.862;19.460;2022-07-22T11:48:34;11.97;;;6.50;;
18738;SDS011;9498;51.862;19.460;2022-07-22T11:51:02;8.70;;;5.90;;
18738;SDS011;9498;51.862;19.460;2022-07-22T11:53:30;9.13;;;6.40;;
18738;SDS011;9498;51.862;19.460;2022-07-22T11:55:57;10.03;;;6.30;;
18738;SDS011;9498;51.862;19.460;2022-07-22T11:58:38;11.07;;;6.23;;
18738;SDS011;9498;51.862;19.460;2022-07-22T12:01:08;11.57;;;6.50;;
18738;SDS011;9498;51.862;19.460;2022-07-22T12:03:36;9.40;;;6.23;;
18738;SDS011;9498;51.862;19.460;2022-07-22T12:06:06;12.90;;;6.07;;
18738;SDS011;9498;51.862;19.460;2022-07-22T12:08:34;9.97;;;6.30;;
18738;SDS011;9498;51.862;19.460;2022-07-22T12:11:02;13.23;;;6.17;;
18738;SDS011;9498;51.862;19.460;2022-07-22T12:13:30;11.00;;;7.17;;
18738;SDS011;9498;51.862;19.460;2022-07-22T12:15:58;14.63;;;6.20;;
18738;SDS011;9498;51.862;19.460;2022-07-22T12:18:27;13.60;;;6.50;;
18738;SDS011;9498;51.862;19.460;2022-07-22T12:20:54;8.13;;;6.10;;
18738;SDS011;9498;51.862;19.460;2022-07-22T12:23:24;8.83;;;6.23;;
18738;SDS011;9498;51.862;19.460;2022-07-22T12:25:53;10.20;;;6.27;;
18738;SDS011;9498;51.862;19.460;2022-07-22T12:28:20;12.47;;;6.17;;
18738;SDS011;9498;51.862;19.460;2022-07-22T12:30:48;10.33;;;6.20;;
18738;SDS011;9498;51.862;19.460;2022-07-22T12:33:16;8.33;;;5.90;;
18738;SDS011;9498;51.862;19.460;2022-07-22T12:35:45;9.20;;;6.10;;
18738;SDS011;9498;51.862;19.460;2022-07-22T12:38:24;8.07;;;6.30;;
18738;SDS011;9498;51.862;19.460;2022-07-22T12:40:51;7.77;;;6.30;;
18738;SDS011;9498;51.862;19.460;2022-07-22T12:43:23;13.73;;;6.60;;
18738;SDS011;9498;51.862;19.460;2022-07-22T12:45:50;12.80;;;6.77;;
18738;SDS011;9498;51.862;19.460;2022-07-22T12:48:17;13.53;;;6.77;;
18738;SDS011;9498;51.862;19.460;2022-07-22T12:50:54;13.73;;;6.20;;
18738;SDS011;9498;51.862;19.460;2022-07-22T12:53:23;7.50;;;6.10;;
18738;SDS011;9498;51.862;19.460;2022-07-22T12:55:52;7.73;;;6.20;;
18738;SDS011;9498;51.862;19.460;2022-07-22T12:58:21;10.40;;;6.50;;
18738;SDS011;9498;51.862;19.460;2022-07-22T13:00:49;9.47;;;6.53;;
18738;SDS011;9498;51.862;19.460;2022-07-22T13:03:19;11.00;;;6.40;;
18738;SDS011;9498;51.862;19.460;2022-07-22T13:05:47;10.00;;;6.27;;
18738;SDS011;9498;51.862;19.460;2022-07-22T13:08:16;12.03;;;6.60;;
18738;SDS011;9498;51.862;19.460;2022-07-22T13:10:43;9.87;;;6.70;;
18738;SDS011;9498;51.862;19.460;2022-07-22T13:13:11;11.30;;;6.50;;
18738;SDS011;9498;51.862;19.460;2022-07-22T13:15:38;11.40;;;6.73;;
18738;SDS011;9498;51.862;19.460;2022-07-22T13:18:06;9.80;;;6.70;;
18738;SDS011;9498;51.862;19.460;2022-07-22T13:20:33;9.40;;;6.50;;
18738;SDS011;9498;51.862;19.460;2022-07-22T13:23:00;9.37;;;6.43;;
18738;SDS011;9498;51.862;19.460;2022-07-22T13:25:29;8.77;;;6.67;;
18738;SDS011;9498;51.862;19.460;2022-07-22T13:27:58;10.97;;;6.70;;
18738;SDS011;9498;51.862;19.460;2022-07-22T13:30:25;9.27;;;6.43;;
18738;SDS011;9498;51.862;19.460;2022-07-22T13:32:53;9.63;;;6.40;;
18738;SDS011;9498;51.862;19.460;2022-07-22T13:35:20;10.73;;;6.53;;
18738;SDS011;9498;51.862;19.460;2022-07-22T13:37:48;11.97;;;6.80;;
18738;SDS011;9498;51.862;19.460;2022-07-22T13:40:15;9.90;;;5.90;;
18738;SDS011;9498;51.862;19.460;2022-07-22T13:42:44;10.87;;;6.40;;
18738;SDS011;9498;51.862;19.460;2022-07-22T13:45:11;12.40;;;6.70;;
18738;SDS011;9498;51.862;19.460;2022-07-22T13:47:39;9.27;;;6.63;;
18738;SDS011;9498;51.862;19.460;2022-07-22T13:50:07;12.50;;;6.27;;
18738;SDS011;9498;51.862;19.460;2022-07-22T13:52:34;10.10;;;5.70;;
18738;SDS011;9498;51.862;19.460;2022-07-22T13:55:02;9.83;;;5.80;;
18738;SDS011;9498;51.862;19.460;2022-07-22T13:57:30;7.87;;;5.80;;
18738;SDS011;9498;51.862;19.460;2022-07-22T13:59:59;11.30;;;6.40;;
18738;SDS011;9498;51.862;19.460;2022-07-22T14:02:26;9.80;;;5.63;;
18738;SDS011;9498;51.862;19.460;2022-07-22T14:04:53;8.67;;;6.00;;
18738;SDS011;9498;51.862;19.460;2022-07-22T14:07:20;11.00;;;6.17;;
18738;SDS011;9498;51.862;19.460;2022-07-22T14:09:48;9.60;;;5.57;;
18738;SDS011;9498;51.862;19.460;2022-07-22T14:12:15;8.63;;;6.30;;
18738;SDS011;9498;51.862;19.460;2022-07-22T14:14:43;9.07;;;6.00;;
18738;SDS011;9498;51.862;19.460;2022-07-22T14:17:11;10.17;;;6.07;;
18738;SDS011;9498;51.862;19.460;2022-07-22T14:19:39;11.40;;;6.10;;
18738;SDS011;9498;51.862;19.460;2022-07-22T14:22:06;8.83;;;5.73;;
18738;SDS011;9498;51.862;19.460;2022-07-22T14:24:33;10.00;;;5.70;;
18738;SDS011;9498;51.862;19.460;2022-07-22T14:27:00;12.93;;;6.37;;
18738;SDS011;9498;51.862;19.460;2022-07-22T14:29:28;9.27;;;6.00;;
18738;SDS011;9498;51.862;19.460;2022-07-22T14:31:55;11.47;;;6.10;;
18738;SDS011;9498;51.862;19.460;2022-07-22T14:34:25;6.53;;;5.77;;
18738;SDS011;9498;51.862;19.460;2022-07-22T14:36:52;9.83;;;6.33;;
18738;SDS011;9498;51.862;19.460;2022-07-22T14:39:19;9.70;;;6.37;;
18738;SDS011;9498;51.862;19.460;2022-07-22T14:41:47;9.53;;;6.07;;
18738;SDS011;9498;51.862;19.460;2022-07-22T14:44:14;8.87;;;6.23;;